sensor_id;sensor_type;location;lat;lon;timestamp;P1;durP1;ratioP1;P2;durP2;ratioP2
41943;SDS011;27636;52.610;13.244;2023-08-31T00:02:11;13.20;;;3.60;;
41943;SDS011;27636;52.610;13.244;2023-08-31T00:07:16;7.38;;;3.97;;
41943;SDS011;27636;52.610;13.244;2023-08-31T00:12:20;7.18;;;3.72;;
41943;SDS011;27636;52.610;13.244;2023-08-31T00:17:25;8.70;;;4.05;;
41943;SDS011;27636;52.610;13.244;2023-08-31T00:22:30;6.68;;;3.97;;
41943;SDS011;27636;52.610;13.244;2023-08-31T00:27:34;6.20;;;3.47;;
41943;SDS011;27636;52.610;13.244;2023-08-31T00:32:40;8.27;;;3.65;;
41943;SDS011;27636;52.610;13.244;2023-08-31T00:37:48;8.38;;;3.28;;
41943;SDS011;27636;52.610;13.244;2023-08-31T00:42:54;7.95;;;4.25;;
41943;SDS011;27636;52.610;13.244;2023-08-31T00:47:57;9.77;;;4.43;;
41943;SDS011;27636;52.610;13.244;2023-08-31T00:53:03;9.10;;;4.67;;
41943;SDS011;27636;52.610;13.244;2023-08-31T00:58:08;7.72;;;4.05;;
41943;SDS011;27636;52.610;13.244;2023-08-31T01:03:12;10.48;;;5.28;;
41943;SDS011;27636;52.610;13.244;2023-08-31T01:08:25;8.80;;;5.10;;
41943;SDS011;27636;52.610;13.244;2023-08-31T01:13:33;9.82;;;5.35;;
41943;SDS011;27636;52.610;13.244;2023-08-31T01:18:41;9.85;;;4.70;;
41943;SDS011;27636;52.610;13.244;2023-08-31T01:23:52;7.20;;;4.05;;
41943;SDS011;27636;52.610;13.244;2023-08-31T01:28:57;9.50;;;4.57;;
41943;SDS011;27636;52.610;13.244;2023-08-31T01:34:02;13.00;;;5.40;;
41943;SDS011;27636;52.610;13.244;2023-08-31T01:39:21;10.03;;;5.37;;
41943;SDS011;27636;52.610;13.244;2023-08-31T01:44:30;8.82;;;3.72;;
41943;SDS011;27636;52.610;13.244;2023-08-31T01:49:35;6.72;;;3.10;;
41943;SDS011;27636;52.610;13.244;2023-08-31T01:54:41;5.72;;;2.60;;
41943;SDS011;27636;52.610;13.244;2023-08-31T02:04:49;5.72;;;2.60;;
41943;SDS011;27636;52.610;13.244;2023-08-31T02:09:55;4.97;;;2.35;;
41943;SDS011;27636;52.610;13.244;2023-08-31T02:20:03;6.40;;;2.15;;
41943;SDS011;27636;52.610;13.244;2023-08-31T02:25:11;4.47;;;2.25;;
41943;SDS011;27636;52.610;13.244;2023-08-31T02:30:15;5.03;;;2.17;;
41943;SDS011;27636;52.610;13.244;2023-08-31T02:35:19;5.93;;;2.53;;
41943;SDS011;27636;52.610;13.244;2023-08-31T02:40:24;5.25;;;2.30;;
41943;SDS011;27636;52.610;13.244;2023-08-31T02:45:28;8.35;;;2.38;;
41943;SDS011;27636;52.610;13.244;2023-08-31T02:50:33;5.90;;;2.38;;
41943;SDS011;27636;52.610;13.244;2023-08-31T02:55:39;5.80;;;2.53;;
41943;SDS011;27636;52.610;13.244;2023-08-31T03:00:44;5.00;;;2.15;;
41943;SDS011;27636;52.610;13.244;2023-08-31T03:05:54;5.57;;;2.22;;
41943;SDS011;27636;52.610;13.244;2023-08-31T03:11:01;7.68;;;2.38;;
41943;SDS011;27636;52.610;13.244;2023-08-31T03:16:05;5.00;;;1.98;;
41943;SDS011;27636;52.610;13.244;2023-08-31T03:21:09;4.95;;;2.30;;
41943;SDS011;27636;52.610;13.244;2023-08-31T03:26:16;5.95;;;2.95;;
41943;SDS011;27636;52.610;13.244;2023-08-31T03:31:20;5.68;;;2.13;;
41943;SDS011;27636;52.610;13.244;2023-08-31T03:42:13;5.57;;;2.03;;
41943;SDS011;27636;52.610;13.244;2023-08-31T03:47:17;8.10;;;2.75;;
41943;SDS011;27636;52.610;13.244;2023-08-31T03:52:21;5.32;;;2.85;;
41943;SDS011;27636;52.610;13.244;2023-08-31T03:57:28;7.75;;;2.58;;
41943;SDS011;27636;52.610;13.244;2023-08-31T04:02:38;9.50;;;2.47;;
41943;SDS011;27636;52.610;13.244;2023-08-31T04:07:42;9.23;;;2.90;;
41943;SDS011;27636;52.610;13.244;2023-08-31T04:12:47;6.75;;;2.72;;
41943;SDS011;27636;52.610;13.244;2023-08-31T04:17:51;8.13;;;3.17;;
41943;SDS011;27636;52.610;13.244;2023-08-31T04:22:55;8.02;;;3.00;;
41943;SDS011;27636;52.610;13.244;2023-08-31T04:28:00;6.75;;;3.28;;
41943;SDS011;27636;52.610;13.244;2023-08-31T04:38:09;9.48;;;3.97;;
41943;SDS011;27636;52.610;13.244;2023-08-31T04:43:15;11.15;;;4.00;;
41943;SDS011;27636;52.610;13.244;2023-08-31T04:48:19;9.02;;;3.90;;
41943;SDS011;27636;52.610;13.244;2023-08-31T04:53:23;11.57;;;4.72;;
41943;SDS011;27636;52.610;13.244;2023-08-31T04:58:28;12.45;;;5.20;;
41943;SDS011;27636;52.610;13.244;2023-08-31T05:08:35;11.85;;;4.90;;
41943;SDS011;27636;52.610;13.244;2023-08-31T05:13:41;15.52;;;5.70;;
41943;SDS011;27636;52.610;13.244;2023-08-31T05:18:48;20.95;;;5.97;;
41943;SDS011;27636;52.610;13.244;2023-08-31T05:23:52;12.17;;;5.13;;
41943;SDS011;27636;52.610;13.244;2023-08-31T05:28:57;13.63;;;5.97;;
41943;SDS011;27636;52.610;13.244;2023-08-31T05:34:02;13.10;;;5.22;;
41943;SDS011;27636;52.610;13.244;2023-08-31T05:39:06;12.32;;;5.65;;
41943;SDS011;27636;52.610;13.244;2023-08-31T05:44:12;13.40;;;6.07;;
41943;SDS011;27636;52.610;13.244;2023-08-31T05:49:16;16.42;;;5.97;;
41943;SDS011;27636;52.610;13.244;2023-08-31T05:54:19;12.77;;;5.65;;
41943;SDS011;27636;52.610;13.244;2023-08-31T05:59:24;14.82;;;6.20;;
41943;SDS011;27636;52.610;13.244;2023-08-31T06:09:32;14.82;;;6.57;;
41943;SDS011;27636;52.610;13.244;2023-08-31T06:14:37;16.38;;;6.70;;
41943;SDS011;27636;52.610;13.244;2023-08-31T06:19:41;13.90;;;6.50;;
41943;SDS011;27636;52.610;13.244;2023-08-31T06:24:45;17.40;;;6.93;;
41943;SDS011;27636;52.610;13.244;2023-08-31T06:29:50;13.63;;;6.70;;
41943;SDS011;27636;52.610;13.244;2023-08-31T06:34:55;17.00;;;6.43;;
41943;SDS011;27636;52.610;13.244;2023-08-31T06:39:58;10.88;;;5.90;;
41943;SDS011;27636;52.610;13.244;2023-08-31T06:45:04;13.00;;;6.13;;
41943;SDS011;27636;52.610;13.244;2023-08-31T06:50:09;13.35;;;6.00;;
41943;SDS011;27636;52.610;13.244;2023-08-31T06:55:14;13.20;;;5.77;;
41943;SDS011;27636;52.610;13.244;2023-08-31T07:00:19;14.27;;;5.85;;
41943;SDS011;27636;52.610;13.244;2023-08-31T07:05:24;11.68;;;5.05;;
41943;SDS011;27636;52.610;13.244;2023-08-31T07:10:29;12.23;;;5.78;;
41943;SDS011;27636;52.610;13.244;2023-08-31T07:15:34;13.00;;;5.63;;
41943;SDS011;27636;52.610;13.244;2023-08-31T07:20:38;11.32;;;4.70;;
41943;SDS011;27636;52.610;13.244;2023-08-31T07:25:42;12.50;;;4.70;;
41943;SDS011;27636;52.610;13.244;2023-08-31T07:30:48;8.03;;;3.83;;
41943;SDS011;27636;52.610;13.244;2023-08-31T07:35:51;8.40;;;4.45;;
41943;SDS011;27636;52.610;13.244;2023-08-31T07:40:55;10.55;;;4.50;;
41943;SDS011;27636;52.610;13.244;2023-08-31T07:46:00;9.75;;;3.70;;
41943;SDS011;27636;52.610;13.244;2023-08-31T07:51:05;8.27;;;2.95;;
41943;SDS011;27636;52.610;13.244;2023-08-31T07:56:09;9.18;;;3.40;;
41943;SDS011;27636;52.610;13.244;2023-08-31T08:01:15;6.75;;;2.85;;
41943;SDS011;27636;52.610;13.244;2023-08-31T08:06:21;8.02;;;2.30;;
41943;SDS011;27636;52.610;13.244;2023-08-31T08:11:25;4.68;;;1.95;;
41943;SDS011;27636;52.610;13.244;2023-08-31T08:16:30;4.63;;;1.92;;
41943;SDS011;27636;52.610;13.244;2023-08-31T08:21:35;6.45;;;1.95;;
41943;SDS011;27636;52.610;13.244;2023-08-31T08:26:38;9.07;;;2.47;;
41943;SDS011;27636;52.610;13.244;2023-08-31T08:31:44;4.67;;;1.77;;
41943;SDS011;27636;52.610;13.244;2023-08-31T08:36:49;7.85;;;2.08;;
41943;SDS011;27636;52.610;13.244;2023-08-31T08:41:52;6.20;;;2.23;;
41943;SDS011;27636;52.610;13.244;2023-08-31T08:47:02;2.13;;;1.05;;
41943;SDS011;27636;52.610;13.244;2023-08-31T08:52:07;5.80;;;1.45;;
41943;SDS011;27636;52.610;13.244;2023-08-31T09:02:17;5.43;;;1.47;;
41943;SDS011;27636;52.610;13.244;2023-08-31T09:07:21;1.80;;;0.90;;
41943;SDS011;27636;52.610;13.244;2023-08-31T09:12:26;3.80;;;1.30;;
41943;SDS011;27636;52.610;13.244;2023-08-31T09:17:41;3.07;;;1.37;;
41943;SDS011;27636;52.610;13.244;2023-08-31T09:22:47;3.20;;;1.17;;
41943;SDS011;27636;52.610;13.244;2023-08-31T09:27:55;1.88;;;1.00;;
41943;SDS011;27636;52.610;13.244;2023-08-31T09:33:00;4.43;;;1.50;;
41943;SDS011;27636;52.610;13.244;2023-08-31T09:38:08;3.60;;;1.35;;
41943;SDS011;27636;52.610;13.244;2023-08-31T09:48:24;3.63;;;1.38;;
41943;SDS011;27636;52.610;13.244;2023-08-31T09:53:30;3.60;;;1.20;;
41943;SDS011;27636;52.610;13.244;2023-08-31T09:58:34;2.67;;;1.10;;
41943;SDS011;27636;52.610;13.244;2023-08-31T10:03:40;2.78;;;1.30;;
41943;SDS011;27636;52.610;13.244;2023-08-31T10:08:44;2.95;;;1.42;;
41943;SDS011;27636;52.610;13.244;2023-08-31T10:13:48;2.72;;;1.10;;
41943;SDS011;27636;52.610;13.244;2023-08-31T10:18:55;4.90;;;1.73;;
41943;SDS011;27636;52.610;13.244;2023-08-31T10:23:59;4.13;;;1.40;;
41943;SDS011;27636;52.610;13.244;2023-08-31T10:29:03;3.13;;;1.25;;
41943;SDS011;27636;52.610;13.244;2023-08-31T10:34:11;1.98;;;1.10;;
41943;SDS011;27636;52.610;13.244;2023-08-31T10:39:17;3.15;;;1.30;;
41943;SDS011;27636;52.610;13.244;2023-08-31T10:44:25;2.72;;;1.17;;
41943;SDS011;27636;52.610;13.244;2023-08-31T10:54:37;3.10;;;1.20;;
41943;SDS011;27636;52.610;13.244;2023-08-31T10:59:42;2.33;;;1.30;;
41943;SDS011;27636;52.610;13.244;2023-08-31T11:04:55;5.10;;;1.40;;
41943;SDS011;27636;52.610;13.244;2023-08-31T11:10:07;5.35;;;1.60;;
41943;SDS011;27636;52.610;13.244;2023-08-31T11:15:13;2.95;;;1.40;;
41943;SDS011;27636;52.610;13.244;2023-08-31T11:20:19;4.80;;;1.20;;
41943;SDS011;27636;52.610;13.244;2023-08-31T11:25:24;3.53;;;1.27;;
41943;SDS011;27636;52.610;13.244;2023-08-31T11:30:30;4.50;;;1.27;;
41943;SDS011;27636;52.610;13.244;2023-08-31T11:35:37;2.03;;;1.08;;
41943;SDS011;27636;52.610;13.244;2023-08-31T11:40:43;2.97;;;1.35;;
41943;SDS011;27636;52.610;13.244;2023-08-31T11:45:48;8.52;;;1.50;;
41943;SDS011;27636;52.610;13.244;2023-08-31T11:50:53;2.83;;;1.00;;
41943;SDS011;27636;52.610;13.244;2023-08-31T11:55:58;3.50;;;1.30;;
41943;SDS011;27636;52.610;13.244;2023-08-31T12:01:05;5.78;;;2.20;;
41943;SDS011;27636;52.610;13.244;2023-08-31T12:06:14;13.52;;;3.22;;
41943;SDS011;27636;52.610;13.244;2023-08-31T12:11:18;7.88;;;2.22;;
41943;SDS011;27636;52.610;13.244;2023-08-31T12:16:23;5.25;;;2.15;;
41943;SDS011;27636;52.610;13.244;2023-08-31T12:21:28;9.10;;;2.38;;
41943;SDS011;27636;52.610;13.244;2023-08-31T12:26:33;6.30;;;2.25;;
41943;SDS011;27636;52.610;13.244;2023-08-31T12:36:43;4.27;;;1.90;;
41943;SDS011;27636;52.610;13.244;2023-08-31T12:41:47;8.00;;;2.30;;
41943;SDS011;27636;52.610;13.244;2023-08-31T12:46:52;4.32;;;1.83;;
41943;SDS011;27636;52.610;13.244;2023-08-31T12:51:57;4.28;;;2.15;;
41943;SDS011;27636;52.610;13.244;2023-08-31T12:57:02;6.40;;;1.88;;
41943;SDS011;27636;52.610;13.244;2023-08-31T13:02:06;7.60;;;2.42;;
41943;SDS011;27636;52.610;13.244;2023-08-31T13:07:15;6.25;;;2.25;;
41943;SDS011;27636;52.610;13.244;2023-08-31T13:17:23;5.37;;;2.33;;
41943;SDS011;27636;52.610;13.244;2023-08-31T13:22:31;5.95;;;1.95;;
41943;SDS011;27636;52.610;13.244;2023-08-31T13:27:35;6.38;;;1.77;;
41943;SDS011;27636;52.610;13.244;2023-08-31T13:32:39;4.85;;;2.15;;
41943;SDS011;27636;52.610;13.244;2023-08-31T13:37:44;3.30;;;1.55;;
41943;SDS011;27636;52.610;13.244;2023-08-31T13:42:49;3.03;;;1.20;;
41943;SDS011;27636;52.610;13.244;2023-08-31T13:47:57;2.05;;;1.20;;
41943;SDS011;27636;52.610;13.244;2023-08-31T13:53:04;5.00;;;1.60;;
41943;SDS011;27636;52.610;13.244;2023-08-31T13:58:08;4.13;;;1.40;;
41943;SDS011;27636;52.610;13.244;2023-08-31T14:03:12;2.38;;;1.13;;
41943;SDS011;27636;52.610;13.244;2023-08-31T14:08:18;4.60;;;1.50;;
41943;SDS011;27636;52.610;13.244;2023-08-31T14:13:22;6.72;;;1.60;;
41943;SDS011;27636;52.610;13.244;2023-08-31T14:18:26;6.30;;;1.70;;
41943;SDS011;27636;52.610;13.244;2023-08-31T14:23:34;7.13;;;1.92;;
41943;SDS011;27636;52.610;13.244;2023-08-31T14:28:38;3.58;;;1.52;;
41943;SDS011;27636;52.610;13.244;2023-08-31T14:33:42;3.80;;;1.65;;
41943;SDS011;27636;52.610;13.244;2023-08-31T14:38:47;3.17;;;1.27;;
41943;SDS011;27636;52.610;13.244;2023-08-31T14:43:51;3.75;;;1.70;;
41943;SDS011;27636;52.610;13.244;2023-08-31T14:48:55;4.30;;;1.67;;
41943;SDS011;27636;52.610;13.244;2023-08-31T14:54:00;3.92;;;1.63;;
41943;SDS011;27636;52.610;13.244;2023-08-31T14:59:04;3.30;;;1.48;;
41943;SDS011;27636;52.610;13.244;2023-08-31T15:04:09;4.32;;;1.65;;
41943;SDS011;27636;52.610;13.244;2023-08-31T15:09:14;4.07;;;1.42;;
41943;SDS011;27636;52.610;13.244;2023-08-31T15:19:21;3.83;;;1.15;;
41943;SDS011;27636;52.610;13.244;2023-08-31T15:24:27;4.72;;;1.05;;
41943;SDS011;27636;52.610;13.244;2023-08-31T15:29:30;5.00;;;1.33;;
41943;SDS011;27636;52.610;13.244;2023-08-31T15:34:36;2.53;;;1.10;;
41943;SDS011;27636;52.610;13.244;2023-08-31T15:39:42;4.80;;;2.58;;
41943;SDS011;27636;52.610;13.244;2023-08-31T15:49:49;3.20;;;1.30;;
41943;SDS011;27636;52.610;13.244;2023-08-31T15:54:55;2.53;;;1.38;;
41943;SDS011;27636;52.610;13.244;2023-08-31T15:59:59;3.13;;;1.33;;
41943;SDS011;27636;52.610;13.244;2023-08-31T16:05:05;3.20;;;1.50;;
41943;SDS011;27636;52.610;13.244;2023-08-31T16:10:11;2.63;;;1.20;;
41943;SDS011;27636;52.610;13.244;2023-08-31T16:20:19;3.03;;;1.10;;
41943;SDS011;27636;52.610;13.244;2023-08-31T16:25:24;2.13;;;1.00;;
41943;SDS011;27636;52.610;13.244;2023-08-31T16:30:28;3.05;;;1.23;;
41943;SDS011;27636;52.610;13.244;2023-08-31T16:35:32;4.25;;;1.50;;
41943;SDS011;27636;52.610;13.244;2023-08-31T16:40:38;4.95;;;1.60;;
41943;SDS011;27636;52.610;13.244;2023-08-31T16:45:42;3.92;;;1.45;;
41943;SDS011;27636;52.610;13.244;2023-08-31T16:50:45;2.60;;;1.10;;
41943;SDS011;27636;52.610;13.244;2023-08-31T16:55:51;4.43;;;1.20;;
41943;SDS011;27636;52.610;13.244;2023-08-31T17:05:58;3.97;;;1.30;;
41943;SDS011;27636;52.610;13.244;2023-08-31T17:11:05;2.83;;;1.10;;
41943;SDS011;27636;52.610;13.244;2023-08-31T17:16:09;2.60;;;1.27;;
41943;SDS011;27636;52.610;13.244;2023-08-31T17:21:13;3.13;;;1.00;;
41943;SDS011;27636;52.610;13.244;2023-08-31T17:26:22;7.30;;;1.67;;
41943;SDS011;27636;52.610;13.244;2023-08-31T17:31:27;3.40;;;1.58;;
41943;SDS011;27636;52.610;13.244;2023-08-31T17:36:31;2.50;;;1.20;;
41943;SDS011;27636;52.610;13.244;2023-08-31T17:41:36;2.92;;;1.40;;
41943;SDS011;27636;52.610;13.244;2023-08-31T17:46:40;3.67;;;2.05;;
41943;SDS011;27636;52.610;13.244;2023-08-31T17:51:44;3.80;;;1.63;;
41943;SDS011;27636;52.610;13.244;2023-08-31T17:56:50;5.20;;;2.10;;
41943;SDS011;27636;52.610;13.244;2023-08-31T18:01:54;4.55;;;1.60;;
41943;SDS011;27636;52.610;13.244;2023-08-31T18:06:58;3.42;;;1.63;;
41943;SDS011;27636;52.610;13.244;2023-08-31T18:12:05;4.17;;;1.60;;
41943;SDS011;27636;52.610;13.244;2023-08-31T18:17:09;5.28;;;2.05;;
41943;SDS011;27636;52.610;13.244;2023-08-31T18:22:13;4.13;;;1.70;;
41943;SDS011;27636;52.610;13.244;2023-08-31T18:27:19;5.30;;;2.17;;
41943;SDS011;27636;52.610;13.244;2023-08-31T18:32:23;6.95;;;1.67;;
41943;SDS011;27636;52.610;13.244;2023-08-31T18:37:26;5.18;;;1.90;;
41943;SDS011;27636;52.610;13.244;2023-08-31T18:42:31;4.25;;;1.85;;
41943;SDS011;27636;52.610;13.244;2023-08-31T18:47:38;5.72;;;2.33;;
41943;SDS011;27636;52.610;13.244;2023-08-31T18:52:42;4.83;;;1.90;;
41943;SDS011;27636;52.610;13.244;2023-08-31T18:57:48;4.18;;;2.00;;
41943;SDS011;27636;52.610;13.244;2023-08-31T19:02:52;3.78;;;1.75;;
41943;SDS011;27636;52.610;13.244;2023-08-31T19:07:56;5.90;;;2.30;;
41943;SDS011;27636;52.610;13.244;2023-08-31T19:13:01;5.97;;;2.05;;
41943;SDS011;27636;52.610;13.244;2023-08-31T19:18:11;6.35;;;1.67;;
41943;SDS011;27636;52.610;13.244;2023-08-31T19:23:15;3.92;;;1.45;;
41943;SDS011;27636;52.610;13.244;2023-08-31T19:28:21;4.97;;;2.25;;
41943;SDS011;27636;52.610;13.244;2023-08-31T19:33:25;4.82;;;2.33;;
41943;SDS011;27636;52.610;13.244;2023-08-31T19:38:28;5.63;;;1.95;;
41943;SDS011;27636;52.610;13.244;2023-08-31T19:43:33;5.93;;;1.77;;
41943;SDS011;27636;52.610;13.244;2023-08-31T19:48:38;4.97;;;1.75;;
41943;SDS011;27636;52.610;13.244;2023-08-31T19:53:42;6.03;;;1.98;;
41943;SDS011;27636;52.610;13.244;2023-08-31T19:58:47;6.47;;;1.67;;
41943;SDS011;27636;52.610;13.244;2023-08-31T20:03:51;6.18;;;1.63;;
41943;SDS011;27636;52.610;13.244;2023-08-31T20:08:55;4.27;;;1.63;;
41943;SDS011;27636;52.610;13.244;2023-08-31T20:14:01;4.35;;;2.13;;
41943;SDS011;27636;52.610;13.244;2023-08-31T20:19:07;4.80;;;2.30;;
41943;SDS011;27636;52.610;13.244;2023-08-31T20:24:12;5.90;;;2.27;;
41943;SDS011;27636;52.610;13.244;2023-08-31T20:29:17;4.53;;;1.92;;
41943;SDS011;27636;52.610;13.244;2023-08-31T20:34:23;6.53;;;2.28;;
41943;SDS011;27636;52.610;13.244;2023-08-31T20:39:26;5.38;;;2.45;;
41943;SDS011;27636;52.610;13.244;2023-08-31T20:44:32;5.65;;;2.08;;
41943;SDS011;27636;52.610;13.244;2023-08-31T20:49:36;5.28;;;2.20;;
41943;SDS011;27636;52.610;13.244;2023-08-31T20:54:40;5.15;;;2.17;;
41943;SDS011;27636;52.610;13.244;2023-08-31T20:59:47;10.70;;;3.05;;
41943;SDS011;27636;52.610;13.244;2023-08-31T21:04:54;6.78;;;2.63;;
41943;SDS011;27636;52.610;13.244;2023-08-31T21:10:01;5.78;;;2.30;;
41943;SDS011;27636;52.610;13.244;2023-08-31T21:15:09;6.43;;;2.55;;
41943;SDS011;27636;52.610;13.244;2023-08-31T21:20:13;5.90;;;2.60;;
41943;SDS011;27636;52.610;13.244;2023-08-31T21:25:17;5.90;;;2.08;;
41943;SDS011;27636;52.610;13.244;2023-08-31T21:30:22;5.80;;;2.47;;
41943;SDS011;27636;52.610;13.244;2023-08-31T21:35:26;6.88;;;3.10;;
41943;SDS011;27636;52.610;13.244;2023-08-31T21:40:33;7.35;;;2.78;;
41943;SDS011;27636;52.610;13.244;2023-08-31T21:45:39;6.10;;;2.13;;
41943;SDS011;27636;52.610;13.244;2023-08-31T21:50:44;6.28;;;2.22;;
41943;SDS011;27636;52.610;13.244;2023-08-31T21:55:47;9.77;;;2.63;;
41943;SDS011;27636;52.610;13.244;2023-08-31T22:00:52;4.97;;;2.38;;
41943;SDS011;27636;52.610;13.244;2023-08-31T22:11:07;5.45;;;2.67;;
41943;SDS011;27636;52.610;13.244;2023-08-31T22:16:12;5.90;;;2.90;;
41943;SDS011;27636;52.610;13.244;2023-08-31T22:21:33;8.23;;;2.80;;
41943;SDS011;27636;52.610;13.244;2023-08-31T22:26:38;4.85;;;2.20;;
41943;SDS011;27636;52.610;13.244;2023-08-31T22:31:43;5.67;;;2.57;;
41943;SDS011;27636;52.610;13.244;2023-08-31T22:41:50;5.07;;;2.00;;
41943;SDS011;27636;52.610;13.244;2023-08-31T22:46:56;5.78;;;2.65;;
41943;SDS011;27636;52.610;13.244;2023-08-31T22:51:59;5.47;;;2.70;;
41943;SDS011;27636;52.610;13.244;2023-08-31T22:57:03;4.57;;;2.35;;
41943;SDS011;27636;52.610;13.244;2023-08-31T23:02:11;5.45;;;2.47;;
41943;SDS011;27636;52.610;13.244;2023-08-31T23:07:14;5.60;;;2.47;;
41943;SDS011;27636;52.610;13.244;2023-08-31T23:12:18;5.82;;;2.60;;
41943;SDS011;27636;52.610;13.244;2023-08-31T23:17:24;7.25;;;2.67;;
41943;SDS011;27636;52.610;13.244;2023-08-31T23:22:27;7.05;;;3.08;;
41943;SDS011;27636;52.610;13.244;2023-08-31T23:27:31;8.50;;;3.08;;
41943;SDS011;27636;52.610;13.244;2023-08-31T23:32:37;6.32;;;2.80;;
41943;SDS011;27636;52.610;13.244;2023-08-31T23:37:40;5.88;;;2.20;;
41943;SDS011;27636;52.610;13.244;2023-08-31T23:42:44;5.10;;;2.60;;
41943;SDS011;27636;52.610;13.244;2023-08-31T23:47:49;8.70;;;3.13;;
41943;SDS011;27636;52.610;13.244;2023-08-31T23:52:54;10.68;;;3.35;;
41943;SDS011;27636;52.610;13.244;2023-08-31T23:57:57;7.50;;;2.75;;
